首页
METAR-TAF:

METAR-TAF

机场 :

渥太华麦克唐纳-卡蒂埃国际机场

渥太華, 安大略省, 加拿大

纬度: 45-19N, 经度: 075-40W, 海拔: 116米

当前天气观测

该预报发布于30分钟前的20:00 UTC
风速15节,风向西转西北
温度 -8°C
湿度 52%
气压 1026 hPa
能見度: 24.1公里
少量云层高于4000英尺

METAR: CYOW 192000Z 29015KT 15SM FEW040 M08/M16 A3029 RMK SC1 SC TR SLP267

时间: 15:30 (20:30 UTC)

预报

该预报发布于2小时和52分钟前的17:38 UTC
预报有效从19日的 18点(UTC)到 20日的 18点(UTC)
风速15节,风向西,有时为25节阵风
能見度: 10公里
少量云层高于4000英尺
成为
从 19日的 18点(UTC)到 19日的 20点(UTC)
散云层高于4000英尺
从 19日的 2200点(UTC)
风速10节,风向西北
能見度: 10公里
散云层高于4000英尺
短暂存在
从 19日的 22点(UTC)到 20日的 18点(UTC)
多云层高于4000英尺
成为
从 20日的 14点(UTC)到 20日的 16点(UTC)
风速12节,风向西转西北,有时为22节阵风

TAF: CYOW 191738Z 1918/2018 28015G25KT P6SM FEW040 BECMG 1918/1920 SCT040 FM192200 32010KT P6SM SCT040 TEMPO 1922/2018 BKN040 BECMG 2014/2016 30012G22KT RMK NXT FCST BY 192100Z

超过4000个机场的气象观测和天气预报(METAR&TAF报告)。

可查询的气象台以黄色和红色小点在地图上表示。

将鼠标移到小点上方,可查看气象台名称。

然后点击查看天气观测和预报。

如需切换地图:点击带黑十字的绿色按钮放大地图;点击带横线的绿色按钮缩小地图;或者点击绿色箭头查看邻近地区的地图。


METAR-TAF: